Time,TemperatureF,DewpointF,PressureIn,WindDirection,WindDirectionDegrees,WindSpeedMPH,WindSpeedGustMPH,Humidity,HourlyPrecipIn,Conditions,Clouds,dailyrainin,SoftwareType,DateUTC
2017-06-26 00:04:00,52.4,47.4,30.01,WSW,243,0.6,1.2,83,0.00,,,0.00,proprietary,2017-06-26 04:04:00,
2017-06-26 00:09:00,52.6,47.7,30.01,WSW,258,0.1,0.7,83,0.00,,,0.00,proprietary,2017-06-26 04:09:00,
2017-06-26 00:15:00,52.2,47.5,30.01,WSW,240,0.1,1.0,84,0.00,,,0.00,proprietary,2017-06-26 04:15:00,
2017-06-26 00:20:00,52.1,47.8,30.01,North,0,0.0,0.0,85,0.00,,,0.00,proprietary,2017-06-26 04:20:00,
2017-06-26 00:25:00,51.5,47.4,30.01,WSW,253,0.7,0.9,85,0.00,,,0.00,proprietary,2017-06-26 04:25:00,
2017-06-26 00:30:00,51.6,47.7,30.01,SSW,206,0.3,1.0,86,0.00,,,0.00,proprietary,2017-06-26 04:30:00,
2017-06-26 00:35:00,51.3,47.8,30.01,SSW,195,0.5,1.1,87,0.00,,,0.00,proprietary,2017-06-26 04:35:00,
2017-06-26 00:40:00,51.1,47.5,30.00,SSW,198,1.4,1.6,87,0.00,,,0.00,proprietary,2017-06-26 04:40:00,
2017-06-26 00:45:00,51.2,47.6,30.00,SW,229,0.9,1.7,87,0.00,,,0.00,proprietary,2017-06-26 04:45:00,
2017-06-26 00:50:00,51.3,47.5,30.00,SW,235,1.0,1.2,86,0.00,,,0.00,proprietary,2017-06-26 04:50:00,
2017-06-26 00:55:00,51.3,47.5,30.00,SW,232,1.0,1.1,86,0.00,,,0.00,proprietary,2017-06-26 04:55:00,
2017-06-26 01:00:00,51.1,47.6,30.00,WSW,248,1.4,1.5,87,0.00,,,0.00,proprietary,2017-06-26 05:00:00,
2017-06-26 01:05:00,51.4,47.7,30.00,WSW,239,1.5,2.0,87,0.00,,,0.00,proprietary,2017-06-26 05:05:00,
2017-06-26 01:10:00,51.2,47.6,30.00,West,272,1.7,2.0,87,0.00,,,0.00,proprietary,2017-06-26 05:10:00,
2017-06-26 01:15:00,51.2,47.5,30.00,West,279,1.2,1.3,87,0.00,,,0.00,proprietary,2017-06-26 05:15:00,
2017-06-26 01:20:00,51.2,47.6,30.00,WNW,303,0.9,1.0,87,0.00,,,0.00,proprietary,2017-06-26 05:20:00,
2017-06-26 01:25:00,51.2,47.4,30.00,WNW,282,1.5,1.6,86,0.00,,,0.00,proprietary,2017-06-26 05:25:00,
2017-06-26 01:30:00,51.1,47.6,29.99,West,259,2.1,2.3,87,0.00,,,0.00,proprietary,2017-06-26 05:30:00,
2017-06-26 01:35:00,51.6,47.5,30.00,SW,233,1.3,1.8,85,0.00,,,0.00,proprietary,2017-06-26 05:35:00,
2017-06-26 01:40:00,51.3,47.7,30.00,WSW,258,1.4,1.9,87,0.00,,,0.00,proprietary,2017-06-26 05:40:00,
2017-06-26 01:45:00,51.5,47.6,30.00,West,260,1.3,1.5,86,0.00,,,0.00,proprietary,2017-06-26 05:45:00,
2017-06-26 01:50:00,51.6,47.3,30.00,West,278,1.4,1.9,85,0.00,,,0.00,proprietary,2017-06-26 05:50:00,
2017-06-26 01:55:00,51.7,47.2,30.00,WNW,288,1.2,1.6,84,0.00,,,0.00,proprietary,2017-06-26 05:55:00,
2017-06-26 02:00:00,52.0,47.2,29.99,West,270,1.3,1.4,83,0.00,,,0.00,proprietary,2017-06-26 06:00:00,
2017-06-26 02:05:00,51.9,47.5,29.99,West,275,1.1,1.5,85,0.00,,,0.00,proprietary,2017-06-26 06:05:00,
2017-06-26 02:10:00,51.9,47.4,29.99,West,265,1.9,2.1,84,0.00,,,0.00,proprietary,2017-06-26 06:10:00,
2017-06-26 02:15:00,52.7,47.2,29.99,West,273,2.5,2.8,81,0.00,,,0.00,proprietary,2017-06-26 06:15:00,
2017-06-26 02:20:00,52.4,47.1,29.99,WNW,284,3.0,3.3,82,0.00,,,0.00,proprietary,2017-06-26 06:20:00,
2017-06-26 02:25:00,52.3,47.0,29.99,West,274,2.5,2.8,82,0.00,,,0.00,proprietary,2017-06-26 06:25:00,
2017-06-26 02:30:00,52.6,47.1,29.99,West,264,2.3,2.9,81,0.00,,,0.00,proprietary,2017-06-26 06:30:00,
2017-06-26 02:35:00,52.5,47.0,29.99,West,278,3.1,3.5,81,0.00,,,0.00,proprietary,2017-06-26 06:35:00,
2017-06-26 02:40:00,52.5,47.0,29.99,WNW,283,2.8,3.2,81,0.00,,,0.00,proprietary,2017-06-26 06:40:00,
2017-06-26 02:45:00,52.7,47.1,29.99,WNW,286,2.2,2.7,81,0.00,,,0.00,proprietary,2017-06-26 06:45:00,
2017-06-26 02:50:00,52.9,47.2,29.99,West,281,1.8,2.4,81,0.00,,,0.00,proprietary,2017-06-26 06:50:00,
2017-06-26 02:55:00,53.2,47.6,29.99,West,278,2.2,2.3,81,0.00,,,0.00,proprietary,2017-06-26 06:55:00,
2017-06-26 03:00:00,53.4,47.8,29.99,West,271,1.9,2.2,81,0.00,,,0.00,proprietary,2017-06-26 07:00:00,
2017-06-26 03:05:00,53.5,47.9,29.99,West,273,2.5,2.9,81,0.00,,,0.00,proprietary,2017-06-26 07:05:00,
2017-06-26 03:10:00,54.0,47.6,29.99,WSW,252,2.3,3.0,78,0.00,,,0.00,proprietary,2017-06-26 07:10:00,
2017-06-26 03:15:00,54.5,47.6,29.99,West,265,1.7,2.1,77,0.00,,,0.00,proprietary,2017-06-26 07:15:00,
2017-06-26 03:20:00,54.0,47.8,29.98,WNW,284,2.4,2.7,79,0.00,,,0.00,proprietary,2017-06-26 07:20:00,
2017-06-26 03:25:00,53.6,47.7,29.98,West,279,2.2,2.7,80,0.00,,,0.00,proprietary,2017-06-26 07:25:00,
2017-06-26 03:30:00,53.6,47.5,29.98,WNW,284,2.7,3.5,79,0.00,,,0.00,proprietary,2017-06-26 07:30:00,
2017-06-26 03:35:00,53.4,47.7,29.98,WNW,286,2.2,2.6,81,0.00,,,0.00,proprietary,2017-06-26 07:35:00,
2017-06-26 03:40:00,53.1,47.7,29.98,West,271,2.8,3.3,81,0.00,,,0.00,proprietary,2017-06-26 07:40:00,
2017-06-26 03:45:00,52.5,47.7,29.98,WNW,284,2.9,3.3,83,0.00,,,0.00,proprietary,2017-06-26 07:45:00,
2017-06-26 03:50:00,52.2,47.7,29.98,West,272,2.5,3.2,84,0.00,,,0.00,proprietary,2017-06-26 07:50:00,
2017-06-26 03:55:00,52.3,47.9,29.98,West,269,2.1,2.3,85,0.00,,,0.00,proprietary,2017-06-26 07:55:00,
2017-06-26 04:00:00,52.4,48.1,29.98,WSW,247,2.2,3.3,85,0.00,,,0.00,proprietary,2017-06-26 08:00:00,
2017-06-26 04:05:00,52.9,48.1,29.98,WSW,252,0.8,1.2,83,0.00,,,0.00,proprietary,2017-06-26 08:05:00,
2017-06-26 04:11:00,52.7,48.2,29.98,West,273,1.8,2.2,84,0.00,,,0.00,proprietary,2017-06-26 08:11:00,
2017-06-26 04:16:00,52.2,48.1,29.98,West,272,2.5,2.8,85,0.00,,,0.00,proprietary,2017-06-26 08:16:00,
2017-06-26 04:21:00,53.3,48.5,29.98,WSW,243,1.8,2.6,83,0.00,,,0.00,proprietary,2017-06-26 08:21:00,
2017-06-26 04:26:00,53.7,48.6,29.98,WSW,245,1.8,2.3,82,0.00,,,0.00,proprietary,2017-06-26 08:26:00,
2017-06-26 04:31:00,53.7,48.6,29.98,WSW,240,1.6,2.2,82,0.00,,,0.00,proprietary,2017-06-26 08:31:00,
2017-06-26 04:36:00,53.8,48.7,29.98,WSW,252,1.5,2.0,82,0.00,,,0.00,proprietary,2017-06-26 08:36:00,
2017-06-26 04:41:00,53.8,48.8,29.98,WSW,247,2.2,3.8,83,0.00,,,0.00,proprietary,2017-06-26 08:41:00,
2017-06-26 04:46:00,53.5,48.8,29.98,WSW,239,2.0,2.9,83,0.00,,,0.00,proprietary,2017-06-26 08:46:00,
2017-06-26 04:51:00,53.4,48.8,29.98,WSW,244,1.7,2.2,84,0.00,,,0.00,proprietary,2017-06-26 08:51:00,
2017-06-26 04:56:00,53.5,48.8,29.98,West,259,2.0,2.5,83,0.00,,,0.00,proprietary,2017-06-26 08:56:00,
2017-06-26 05:01:00,52.6,48.6,29.99,West,263,2.1,3.2,86,0.00,,,0.00,proprietary,2017-06-26 09:01:00,
2017-06-26 05:06:00,52.1,48.5,29.99,West,278,2.4,2.8,87,0.00,,,0.00,proprietary,2017-06-26 09:06:00,
2017-06-26 05:11:00,51.9,48.7,29.99,West,281,2.2,2.6,88,0.00,,,0.00,proprietary,2017-06-26 09:11:00,
2017-06-26 05:16:00,51.8,48.6,29.98,West,277,2.6,3.2,88,0.00,,,0.00,proprietary,2017-06-26 09:16:00,
2017-06-26 05:21:00,51.6,48.5,29.99,West,266,1.8,2.5,89,0.00,,,0.00,proprietary,2017-06-26 09:21:00,
2017-06-26 05:26:00,51.1,48.4,29.99,West,274,2.8,3.7,90,0.00,,,0.00,proprietary,2017-06-26 09:26:00,
2017-06-26 05:31:00,50.9,48.4,29.99,WNW,285,2.6,3.1,91,0.00,,,0.00,proprietary,2017-06-26 09:31:00,
2017-06-26 05:36:00,51.0,48.4,29.99,West,270,2.8,3.1,90,0.00,,,0.00,proprietary,2017-06-26 09:36:00,
2017-06-26 05:41:00,51.0,48.4,29.99,WNW,283,2.8,3.2,90,0.00,,,0.00,proprietary,2017-06-26 09:41:00,
2017-06-26 05:46:00,51.0,48.7,29.99,West,278,2.0,2.8,91,0.00,,,0.00,proprietary,2017-06-26 09:46:00,
2017-06-26 05:51:00,51.1,48.9,29.99,West,272,2.6,3.2,92,0.00,,,0.00,proprietary,2017-06-26 09:51:00,
2017-06-26 05:55:00,51.2,48.9,29.99,West,281,2.6,3.0,91,0.00,,,0.00,proprietary,2017-06-26 09:55:00,
2017-06-26 06:00:00,51.0,48.8,29.99,West,269,3.4,4.0,92,0.00,,,0.00,proprietary,2017-06-26 10:00:00,
2017-06-26 06:05:00,51.1,49.0,30.00,WSW,251,2.0,2.6,92,0.00,,,0.00,proprietary,2017-06-26 10:05:00,
2017-06-26 06:10:00,51.4,49.6,30.00,West,263,2.2,2.8,93,0.00,,,0.00,proprietary,2017-06-26 10:10:00,
2017-06-26 06:15:00,51.7,49.7,30.00,WSW,248,2.2,2.8,92,0.00,,,0.00,proprietary,2017-06-26 10:15:00,
2017-06-26 06:20:00,52.1,50.0,30.00,WSW,249,2.5,3.4,92,0.00,,,0.00,proprietary,2017-06-26 10:20:00,
2017-06-26 06:25:00,52.3,50.2,30.00,West,262,2.2,3.1,92,0.00,,,0.00,proprietary,2017-06-26 10:25:00,
2017-06-26 06:30:00,52.0,50.2,30.00,West,274,2.0,2.4,93,0.00,,,0.00,proprietary,2017-06-26 10:30:00,
2017-06-26 06:35:00,52.1,50.2,30.00,WSW,252,1.6,2.8,93,0.00,,,0.00,proprietary,2017-06-26 10:35:00,
2017-06-26 06:40:00,52.1,50.2,30.00,West,278,1.5,2.4,93,0.00,,,0.00,proprietary,2017-06-26 10:40:00,
2017-06-26 06:45:00,52.0,50.2,30.00,West,269,1.9,2.5,93,0.00,,,0.00,proprietary,2017-06-26 10:45:00,
2017-06-26 06:50:00,52.8,51.0,30.00,WSW,253,2.8,3.3,93,0.00,,,0.00,proprietary,2017-06-26 10:50:00,
2017-06-26 06:55:00,53.0,51.0,30.00,West,270,2.0,2.9,92,0.00,,,0.00,proprietary,2017-06-26 10:55:00,
2017-06-26 07:00:00,53.6,51.3,30.00,WSW,255,3.4,4.1,92,0.00,,,0.00,proprietary,2017-06-26 11:00:00,
2017-06-26 07:05:00,54.0,51.4,30.00,West,265,3.3,4.8,90,0.00,,,0.00,proprietary,2017-06-26 11:05:00,
2017-06-26 07:10:00,54.4,51.5,30.00,SW,226,4.2,6.3,89,0.00,,,0.00,proprietary,2017-06-26 11:10:00,
2017-06-26 07:15:00,54.7,51.6,30.00,WSW,250,4.0,6.3,89,0.00,,,0.00,proprietary,2017-06-26 11:15:00,
2017-06-26 07:20:00,54.9,51.9,30.00,West,269,5.5,7.8,89,0.00,,,0.00,proprietary,2017-06-26 11:20:00,
2017-06-26 07:25:00,55.0,51.9,30.01,WSW,251,4.5,5.9,89,0.00,,,0.00,proprietary,2017-06-26 11:25:00,
2017-06-26 07:30:00,55.2,52.0,30.01,West,261,3.5,4.6,88,0.00,,,0.00,proprietary,2017-06-26 11:30:00,
2017-06-26 07:35:00,55.4,52.1,30.01,WSW,258,4.6,5.4,88,0.00,,,0.00,proprietary,2017-06-26 11:35:00,
2017-06-26 07:40:00,55.7,52.5,30.01,West,267,5.9,7.2,88,0.00,,,0.00,proprietary,2017-06-26 11:40:00,
2017-06-26 07:45:00,55.9,52.8,30.01,West,261,5.2,7.1,89,0.00,,,0.00,proprietary,2017-06-26 11:45:00,
2017-06-26 07:50:00,56.4,52.7,30.01,WSW,252,5.6,6.5,87,0.00,,,0.00,proprietary,2017-06-26 11:50:00,
2017-06-26 07:55:00,56.6,52.8,30.01,West,273,7.6,9.9,87,0.00,,,0.00,proprietary,2017-06-26 11:55:00,
2017-06-26 08:00:00,56.6,52.9,30.01,West,273,7.9,9.6,87,0.00,,,0.00,proprietary,2017-06-26 12:00:00,
2017-06-26 08:06:00,56.7,52.8,30.01,West,273,7.3,9.5,86,0.00,,,0.00,proprietary,2017-06-26 12:06:00,
2017-06-26 08:11:00,56.7,52.8,30.01,West,268,7.2,9.6,86,0.00,,,0.00,proprietary,2017-06-26 12:11:00,
2017-06-26 08:16:00,56.9,52.8,30.01,West,265,7.6,10.6,86,0.00,,,0.00,proprietary,2017-06-26 12:16:00,
2017-06-26 08:21:00,57.2,52.8,30.01,WNW,290,6.6,8.5,85,0.00,,,0.00,proprietary,2017-06-26 12:21:00,
2017-06-26 08:26:00,57.7,52.8,30.01,West,267,7.6,10.0,83,0.00,,,0.00,proprietary,2017-06-26 12:26:00,
2017-06-26 08:31:00,57.7,52.4,30.01,West,266,10.6,12.0,82,0.00,,,0.00,proprietary,2017-06-26 12:31:00,
2017-06-26 08:36:00,57.9,52.5,30.01,West,274,10.0,12.1,82,0.00,,,0.00,proprietary,2017-06-26 12:36:00,
2017-06-26 08:41:00,58.1,52.1,30.02,WSW,240,9.0,12.2,80,0.00,,,0.00,proprietary,2017-06-26 12:41:00,
2017-06-26 08:46:00,58.8,52.5,30.02,WNW,285,7.5,8.7,79,0.00,,,0.00,proprietary,2017-06-26 12:46:00,
2017-06-26 08:51:00,59.4,51.9,30.02,WNW,282,13.4,17.8,76,0.00,,,0.00,proprietary,2017-06-26 12:51:00,
2017-06-26 08:56:00,59.3,51.4,30.01,WNW,285,10.6,13.7,74,0.00,,,0.00,proprietary,2017-06-26 12:56:00,
2017-06-26 09:01:00,59.9,50.5,30.02,WNW,291,11.2,14.6,71,0.00,,,0.00,proprietary,2017-06-26 13:01:00,
2017-06-26 09:06:00,59.9,49.5,30.02,WNW,287,9.6,11.9,68,0.00,,,0.00,proprietary,2017-06-26 13:06:00,
2017-06-26 09:11:00,59.8,49.2,30.02,WNW,284,11.9,16.8,67,0.00,,,0.00,proprietary,2017-06-26 13:11:00,
2017-06-26 09:16:00,60.1,50.0,30.02,West,281,8.9,10.7,69,0.00,,,0.00,proprietary,2017-06-26 13:16:00,
2017-06-26 09:21:00,60.9,49.0,30.02,WNW,284,10.3,14.1,64,0.00,,,0.00,proprietary,2017-06-26 13:21:00,
2017-06-26 09:26:00,60.3,48.6,30.02,West,273,12.2,18.0,65,0.00,,,0.00,proprietary,2017-06-26 13:26:00,
2017-06-26 09:31:00,59.7,48.1,30.02,WNW,295,11.0,15.3,65,0.00,,,0.00,proprietary,2017-06-26 13:31:00,
2017-06-26 09:36:00,60.9,49.3,30.02,West,276,8.2,9.4,65,0.00,,,0.00,proprietary,2017-06-26 13:36:00,
2017-06-26 09:41:00,60.9,48.7,30.01,WNW,285,9.2,12.2,64,0.00,,,0.00,proprietary,2017-06-26 13:41:00,
2017-06-26 09:46:00,61.5,48.0,30.02,West,279,9.1,11.1,61,0.00,,,0.00,proprietary,2017-06-26 13:46:00,
2017-06-26 09:51:00,61.3,47.9,30.02,WNW,285,8.0,10.6,61,0.00,,,0.00,proprietary,2017-06-26 13:51:00,
2017-06-26 09:56:00,61.2,47.5,30.01,WSW,254,9.5,12.3,60,0.00,,,0.00,proprietary,2017-06-26 13:56:00,
2017-06-26 10:01:00,61.8,47.6,30.01,West,266,11.5,13.8,59,0.00,,,0.00,proprietary,2017-06-26 14:01:00,
2017-06-26 10:06:00,62.4,47.7,30.01,West,280,10.0,12.8,58,0.00,,,0.00,proprietary,2017-06-26 14:06:00,
2017-06-26 10:11:00,62.4,49.0,30.01,West,267,7.8,9.6,61,0.00,,,0.00,proprietary,2017-06-26 14:11:00,
2017-06-26 10:16:00,62.5,48.1,30.01,WNW,282,10.4,12.2,59,0.00,,,0.00,proprietary,2017-06-26 14:16:00,
2017-06-26 10:21:00,62.0,47.3,30.01,West,271,10.6,12.6,58,0.00,,,0.00,proprietary,2017-06-26 14:21:00,
2017-06-26 10:26:00,62.1,46.9,30.01,WNW,283,10.6,15.6,57,0.00,,,0.00,proprietary,2017-06-26 14:26:00,
2017-06-26 10:31:00,62.8,47.5,30.01,West,281,8.1,9.4,57,0.00,,,0.00,proprietary,2017-06-26 14:31:00,
2017-06-26 10:36:00,62.2,47.3,30.01,WNW,295,8.8,11.2,58,0.00,,,0.00,proprietary,2017-06-26 14:36:00,
2017-06-26 10:41:00,63.1,47.5,30.01,WNW,301,7.8,11.3,56,0.00,,,0.00,proprietary,2017-06-26 14:41:00,
2017-06-26 10:46:00,62.8,46.5,30.01,WNW,293,10.3,13.1,55,0.00,,,0.00,proprietary,2017-06-26 14:46:00,
2017-06-26 10:51:00,61.9,45.5,30.00,NW,310,10.8,13.0,54,0.00,,,0.00,proprietary,2017-06-26 14:51:00,
2017-06-26 10:56:00,62.9,46.4,30.00,WSW,257,6.4,10.1,54,0.00,,,0.00,proprietary,2017-06-26 14:56:00,
2017-06-26 11:01:00,63.9,45.6,30.00,West,269,14.7,17.6,51,0.00,,,0.00,proprietary,2017-06-26 15:01:00,
2017-06-26 11:06:00,64.4,46.8,30.00,West,276,12.6,15.3,52,0.00,,,0.00,proprietary,2017-06-26 15:06:00,
2017-06-26 11:11:00,63.2,46.8,30.01,West,265,9.4,11.1,54,0.00,,,0.00,proprietary,2017-06-26 15:11:00,
2017-06-26 11:16:00,63.2,45.8,30.00,WNW,287,8.3,11.1,53,0.00,,,0.00,proprietary,2017-06-26 15:16:00,
2017-06-26 11:21:00,63.9,46.7,30.01,West,275,8.2,10.6,53,0.00,,,0.00,proprietary,2017-06-26 15:21:00,
2017-06-26 11:26:00,64.4,45.2,30.00,WNW,290,13.7,16.8,49,0.00,,,0.00,proprietary,2017-06-26 15:26:00,
2017-06-26 11:31:00,65.0,45.9,30.01,West,272,9.6,12.3,50,0.00,,,0.00,proprietary,2017-06-26 15:31:00,
2017-06-26 11:36:00,64.0,43.9,30.01,WSW,246,14.4,19.9,47,0.00,,,0.00,proprietary,2017-06-26 15:36:00,
2017-06-26 11:41:00,64.9,45.2,30.00,WNW,297,11.2,15.8,48,0.00,,,0.00,proprietary,2017-06-26 15:41:00,
2017-06-26 11:46:00,65.8,45.2,30.00,WNW,284,7.7,9.2,47,0.00,,,0.00,proprietary,2017-06-26 15:46:00,
2017-06-26 11:51:00,65.9,42.9,30.00,WNW,285,11.2,14.0,43,0.00,,,0.00,proprietary,2017-06-26 15:51:00,
2017-06-26 11:56:00,64.9,41.3,30.00,West,271,17.4,19.7,41,0.00,,,0.00,proprietary,2017-06-26 15:56:00,
2017-06-26 12:02:00,64.7,43.0,30.00,West,268,11.1,14.4,45,0.00,,,0.00,proprietary,2017-06-26 16:02:00,
2017-06-26 12:07:00,66.1,43.1,30.00,West,271,11.1,15.6,43,0.00,,,0.00,proprietary,2017-06-26 16:07:00,
2017-06-26 12:12:00,66.2,42.6,30.00,West,269,16.0,19.2,42,0.00,,,0.00,proprietary,2017-06-26 16:12:00,
2017-06-26 12:17:00,66.3,41.4,30.00,WSW,258,13.1,18.3,40,0.00,,,0.00,proprietary,2017-06-26 16:17:00,
2017-06-26 12:22:00,65.2,40.5,30.00,West,259,13.1,16.8,40,0.00,,,0.00,proprietary,2017-06-26 16:22:00,
2017-06-26 12:27:00,66.4,41.1,30.00,West,278,11.3,14.4,39,0.00,,,0.00,proprietary,2017-06-26 16:27:00,
2017-06-26 12:32:00,66.0,40.6,30.00,WNW,293,10.7,12.8,39,0.00,,,0.00,proprietary,2017-06-26 16:32:00,
2017-06-26 12:37:00,65.1,41.7,30.00,West,269,12.2,16.6,42,0.00,,,0.00,proprietary,2017-06-26 16:37:00,
2017-06-26 12:42:00,66.3,41.5,30.00,West,262,13.1,16.8,40,0.00,,,0.00,proprietary,2017-06-26 16:42:00,
2017-06-26 12:47:00,67.2,41.3,29.99,West,261,15.0,19.0,38,0.00,,,0.00,proprietary,2017-06-26 16:47:00,
2017-06-26 12:52:00,65.8,42.0,30.00,WNW,302,12.3,20.5,41,0.00,,,0.00,proprietary,2017-06-26 16:52:00,
2017-06-26 12:57:00,67.5,43.8,30.00,WNW,297,7.5,10.8,42,0.00,,,0.00,proprietary,2017-06-26 16:57:00,
2017-06-26 13:02:00,66.2,41.4,29.99,WNW,282,18.6,21.5,40,0.00,,,0.00,proprietary,2017-06-26 17:02:00,
2017-06-26 13:07:00,67.8,41.8,29.99,West,263,13.0,16.4,38,0.00,,,0.00,proprietary,2017-06-26 17:07:00,
2017-06-26 13:12:00,66.9,42.5,29.99,NW,310,12.2,15.7,41,0.00,,,0.00,proprietary,2017-06-26 17:12:00,
2017-06-26 13:17:00,65.4,40.8,30.00,WNW,293,12.6,18.1,40,0.00,,,0.00,proprietary,2017-06-26 17:17:00,
2017-06-26 13:22:00,66.4,41.9,30.00,WNW,287,10.4,12.6,40,0.00,,,0.00,proprietary,2017-06-26 17:22:00,
2017-06-26 13:27:00,66.4,40.8,29.99,West,272,12.4,18.3,39,0.00,,,0.00,proprietary,2017-06-26 17:27:00,
2017-06-26 13:32:00,67.4,41.4,29.99,WSW,256,10.9,13.4,38,0.00,,,0.00,proprietary,2017-06-26 17:32:00,
2017-06-26 13:37:00,67.8,41.2,29.99,West,272,15.2,20.0,37,0.00,,,0.00,proprietary,2017-06-26 17:37:00,
2017-06-26 13:42:00,65.7,40.6,29.99,West,274,15.3,18.1,39,0.00,,,0.00,proprietary,2017-06-26 17:42:00,
2017-06-26 13:47:00,64.9,41.4,30.00,WNW,287,8.0,9.7,42,0.00,,,0.00,proprietary,2017-06-26 17:47:00,
2017-06-26 13:52:00,64.6,40.8,30.00,WNW,289,12.5,15.1,41,0.00,,,0.00,proprietary,2017-06-26 17:52:00,
2017-06-26 13:57:00,64.9,41.0,30.00,West,272,11.8,14.9,41,0.00,,,0.00,proprietary,2017-06-26 17:57:00,
2017-06-26 14:02:00,66.4,41.4,29.99,WNW,302,12.1,15.5,40,0.00,,,0.00,proprietary,2017-06-26 18:02:00,
2017-06-26 14:07:00,65.8,40.7,29.99,WNW,292,14.1,20.7,39,0.00,,,0.00,proprietary,2017-06-26 18:07:00,
2017-06-26 14:12:00,64.6,40.3,30.00,West,267,10.2,17.7,40,0.00,,,0.00,proprietary,2017-06-26 18:12:00,
2017-06-26 14:17:00,63.8,41.2,30.00,WNW,283,9.1,11.2,43,0.00,,,0.00,proprietary,2017-06-26 18:17:00,
2017-06-26 14:22:00,66.3,43.4,29.99,WNW,287,8.7,12.7,43,0.00,,,0.00,proprietary,2017-06-26 18:22:00,
2017-06-26 14:27:00,66.2,41.7,29.99,West,266,12.4,16.3,40,0.00,,,0.00,proprietary,2017-06-26 18:27:00,
2017-06-26 14:32:00,65.8,41.8,29.99,WSW,256,10.1,14.8,41,0.00,,,0.00,proprietary,2017-06-26 18:32:00,
2017-06-26 14:37:00,66.0,40.7,29.99,WSW,241,12.6,17.1,39,0.00,,,0.00,proprietary,2017-06-26 18:37:00,
2017-06-26 14:42:00,66.7,40.3,29.99,West,271,15.6,20.1,37,0.00,,,0.00,proprietary,2017-06-26 18:42:00,
2017-06-26 14:47:00,66.5,39.6,29.98,SW,230,10.9,16.9,37,0.00,,,0.00,proprietary,2017-06-26 18:47:00,
2017-06-26 14:52:00,66.5,40.3,29.98,WNW,299,11.4,14.6,38,0.00,,,0.00,proprietary,2017-06-26 18:52:00,